createdAt,value
2023-03-16T00:00:18.670Z,7.50
2023-03-16T00:02:45.548Z,7.03
2023-03-16T00:05:13.903Z,8.50
2023-03-16T00:07:42.111Z,6.63
2023-03-16T00:10:12.451Z,10.57
2023-03-16T00:12:39.831Z,6.37
2023-03-16T00:15:07.280Z,7.40
2023-03-16T00:17:34.757Z,10.27
2023-03-16T00:20:06.619Z,8.43
2023-03-16T00:22:34.174Z,7.97
2023-03-16T00:25:01.883Z,10.37
2023-03-16T00:27:29.382Z,9.50
2023-03-16T00:29:56.654Z,6.73
2023-03-16T00:32:26.755Z,12.73
2023-03-16T00:34:53.665Z,7.30
2023-03-16T00:37:23.262Z,11.17
2023-03-16T00:39:51.463Z,6.13
2023-03-16T00:42:19.997Z,10.60
2023-03-16T00:44:47.312Z,7.93
2023-03-16T00:47:14.762Z,9.03
2023-03-16T00:49:44.000Z,7.40
2023-03-16T00:52:16.221Z,8.30
2023-03-16T00:54:47.073Z,7.43
2023-03-16T00:57:17.653Z,7.07
2023-03-16T00:59:45.785Z,12.93
2023-03-16T01:02:13.805Z,7.00
2023-03-16T01:04:41.500Z,7.40
2023-03-16T01:07:10.973Z,7.10
2023-03-16T01:09:38.631Z,8.63
2023-03-16T01:12:07.941Z,7.17
2023-03-16T01:14:36.142Z,9.20
2023-03-16T01:17:06.231Z,7.57
2023-03-16T01:19:35.740Z,6.97
2023-03-16T01:22:06.898Z,5.73
2023-03-16T01:24:37.575Z,6.87
2023-03-16T01:27:04.929Z,7.73
2023-03-16T01:29:33.038Z,7.27
2023-03-16T01:32:01.153Z,7.70
2023-03-16T01:34:28.579Z,5.77
2023-03-16T01:36:55.771Z,6.77
2023-03-16T01:39:23.255Z,8.93
2023-03-16T01:41:50.102Z,8.10
2023-03-16T01:44:22.464Z,7.47
2023-03-16T01:46:49.250Z,8.83
2023-03-16T01:49:27.151Z,7.07
2023-03-16T01:52:04.507Z,10.10
2023-03-16T01:54:47.547Z,10.87
2023-03-16T01:57:17.473Z,9.30
2023-03-16T01:59:58.037Z,8.83
2023-03-16T02:02:29.953Z,12.57
2023-03-16T02:05:08.024Z,13.33
2023-03-16T02:07:40.317Z,9.53
2023-03-16T02:10:08.801Z,13.00
2023-03-16T02:12:36.239Z,10.70
2023-03-16T02:15:03.162Z,13.97
2023-03-16T02:17:31.961Z,11.90
2023-03-16T02:20:19.068Z,8.57
2023-03-16T02:22:48.648Z,9.10
2023-03-16T02:25:18.411Z,12.97
2023-03-16T02:27:51.632Z,12.63
2023-03-16T02:30:20.231Z,10.70
2023-03-16T02:32:49.026Z,9.60
2023-03-16T02:35:15.862Z,9.67
2023-03-16T02:37:42.710Z,11.30
2023-03-16T02:40:23.318Z,10.70
2023-03-16T02:42:58.955Z,11.30
2023-03-16T02:45:28.909Z,12.67
2023-03-16T02:47:58.457Z,15.00
2023-03-16T02:50:25.483Z,14.23
2023-03-16T02:52:52.468Z,13.50
2023-03-16T02:55:19.425Z,16.03
2023-03-16T02:57:46.132Z,15.60
2023-03-16T03:00:17.895Z,16.07
2023-03-16T03:02:45.782Z,15.53
2023-03-16T03:05:12.785Z,17.90
2023-03-16T03:07:39.726Z,21.07
2023-03-16T03:10:07.326Z,15.93
2023-03-16T03:12:34.998Z,14.67
2023-03-16T03:15:01.843Z,17.23
2023-03-16T03:17:30.342Z,15.33
2023-03-16T03:20:02.393Z,19.57
2023-03-16T03:22:29.197Z,16.17
2023-03-16T03:24:55.919Z,17.40
2023-03-16T03:27:22.871Z,13.43
2023-03-16T03:29:49.680Z,12.17
2023-03-16T03:32:16.633Z,17.57
2023-03-16T03:34:43.340Z,11.70
2023-03-16T03:37:10.184Z,12.53
2023-03-16T03:39:36.980Z,9.07
2023-03-16T03:42:03.919Z,10.37
2023-03-16T03:44:34.634Z,12.37
2023-03-16T03:47:01.956Z,10.53
2023-03-16T03:49:29.091Z,9.70
2023-03-16T03:51:56.664Z,9.67
2023-03-16T03:54:23.371Z,10.00
2023-03-16T03:56:51.043Z,8.07
2023-03-16T03:59:17.970Z,8.57
2023-03-16T04:01:44.689Z,9.43
2023-03-16T04:04:11.837Z,11.20
2023-03-16T04:06:38.539Z,8.63
2023-03-16T04:09:05.580Z,9.00
2023-03-16T04:11:32.331Z,10.83
2023-03-16T04:13:59.101Z,9.43
2023-03-16T04:16:27.050Z,10.97
2023-03-16T04:18:54.428Z,10.70
2023-03-16T04:21:21.638Z,8.37
2023-03-16T04:23:49.799Z,9.27
2023-03-16T04:26:16.909Z,11.03
2023-03-16T04:28:43.708Z,10.23
2023-03-16T04:31:11.170Z,9.33
2023-03-16T04:33:39.747Z,9.27
2023-03-16T04:36:07.483Z,7.83
2023-03-16T04:38:34.784Z,9.77
2023-03-16T04:41:03.661Z,11.17
2023-03-16T04:43:34.277Z,9.07
2023-03-16T04:46:02.320Z,10.97
2023-03-16T04:48:30.625Z,8.27
2023-03-16T04:50:57.666Z,9.73
2023-03-16T04:53:24.570Z,8.10
2023-03-16T04:55:51.312Z,10.07
2023-03-16T04:58:18.061Z,9.63
2023-03-16T05:00:45.503Z,11.43
2023-03-16T05:03:12.236Z,9.10
2023-03-16T05:05:39.827Z,9.97
2023-03-16T05:08:07.394Z,6.60
2023-03-16T05:10:34.671Z,10.80
2023-03-16T05:13:01.394Z,7.13
2023-03-16T05:15:28.276Z,8.07
2023-03-16T05:17:56.056Z,7.57
2023-03-16T05:20:23.942Z,7.03
2023-03-16T05:22:51.165Z,8.90
2023-03-16T05:25:18.960Z,7.83
2023-03-16T05:27:51.106Z,7.90
2023-03-16T05:30:19.123Z,6.93
2023-03-16T05:32:45.984Z,6.83
2023-03-16T05:35:13.694Z,6.37
2023-03-16T05:37:44.122Z,4.73
2023-03-16T05:40:17.216Z,7.03
2023-03-16T05:42:48.547Z,5.23
2023-03-16T05:45:17.017Z,5.67
2023-03-16T05:47:44.136Z,5.70
2023-03-16T05:50:12.584Z,5.57
2023-03-16T05:52:40.257Z,4.57
2023-03-16T05:55:09.384Z,3.67
2023-03-16T05:57:36.414Z,5.07
2023-03-16T06:00:15.644Z,2.97
2023-03-16T06:02:51.367Z,3.83
2023-03-16T06:05:20.366Z,3.80
2023-03-16T06:07:47.530Z,2.73
2023-03-16T06:10:14.694Z,3.70
2023-03-16T06:12:41.980Z,3.83
2023-03-16T06:15:10.389Z,3.10
2023-03-16T06:17:38.329Z,5.07
2023-03-16T06:20:11.309Z,4.87
2023-03-16T06:22:39.432Z,5.53
2023-03-16T06:25:06.988Z,5.43
2023-03-16T06:27:34.046Z,4.33
2023-03-16T06:30:01.542Z,6.23
2023-03-16T06:32:28.277Z,7.33
2023-03-16T06:34:55.080Z,7.70
2023-03-16T06:37:21.987Z,6.10
2023-03-16T06:39:48.706Z,6.07
2023-03-16T06:42:15.540Z,8.13
2023-03-16T06:44:42.751Z,6.17
2023-03-16T06:47:10.462Z,6.30
2023-03-16T06:49:37.509Z,5.40
2023-03-16T06:52:04.325Z,5.90
2023-03-16T06:54:34.129Z,8.93
2023-03-16T06:57:01.449Z,5.93
2023-03-16T06:59:28.266Z,6.73
2023-03-16T07:01:55.285Z,7.77
2023-03-16T07:04:22.113Z,5.07
2023-03-16T07:06:49.157Z,4.43
2023-03-16T07:09:16.106Z,8.60
2023-03-16T07:11:43.013Z,8.97
2023-03-16T07:14:09.934Z,6.63
2023-03-16T07:16:36.745Z,6.07
2023-03-16T07:19:03.706Z,6.37
2023-03-16T07:21:32.154Z,5.13
2023-03-16T07:23:58.936Z,10.03
2023-03-16T07:26:25.739Z,6.40
2023-03-16T07:28:52.425Z,7.37
2023-03-16T07:31:19.352Z,8.33
2023-03-16T07:33:46.182Z,9.13
2023-03-16T07:36:12.954Z,5.80
2023-03-16T07:38:40.077Z,7.67
2023-03-16T07:41:06.850Z,6.83
2023-03-16T07:43:34.466Z,9.07
2023-03-16T07:46:02.450Z,7.97
2023-03-16T07:48:29.163Z,7.43
2023-03-16T07:50:56.091Z,6.80
2023-03-16T07:53:22.854Z,8.43
2023-03-16T07:55:49.668Z,8.10
2023-03-16T07:58:16.466Z,6.07
2023-03-16T08:00:43.393Z,5.13
2023-03-16T08:03:10.279Z,5.70
2023-03-16T08:05:37.166Z,7.07
2023-03-16T08:08:04.131Z,5.63
2023-03-16T08:10:31.928Z,2.70
2023-03-16T08:12:58.976Z,8.07
2023-03-16T08:15:25.864Z,4.23
2023-03-16T08:17:52.715Z,4.27
2023-03-16T08:20:19.654Z,3.60
2023-03-16T08:22:47.400Z,6.07
2023-03-16T08:25:15.390Z,6.50
2023-03-16T08:27:43.061Z,6.57
2023-03-16T08:30:11.996Z,9.77
2023-03-16T08:32:39.922Z,9.00
2023-03-16T08:35:16.740Z,4.83
2023-03-16T08:37:43.815Z,9.43
2023-03-16T08:40:13.966Z,6.33
2023-03-16T08:42:41.480Z,9.57
2023-03-16T08:45:14.129Z,9.27
2023-03-16T08:47:41.691Z,7.17
2023-03-16T08:50:09.896Z,4.87
2023-03-16T08:52:37.103Z,4.77
2023-03-16T08:55:05.772Z,3.93
2023-03-16T08:57:34.484Z,5.53
2023-03-16T09:00:01.676Z,7.57
2023-03-16T09:02:28.427Z,6.47
2023-03-16T09:04:56.239Z,5.70
2023-03-16T09:07:23.442Z,6.70
2023-03-16T09:09:51.155Z,7.00
2023-03-16T09:12:18.020Z,7.27
2023-03-16T09:14:46.002Z,6.40
2023-03-16T09:17:12.955Z,7.07
2023-03-16T09:19:51.030Z,6.73
2023-03-16T09:22:19.905Z,5.63
2023-03-16T09:24:48.426Z,7.63
2023-03-16T09:27:15.984Z,7.50
2023-03-16T09:29:43.524Z,7.83
2023-03-16T09:32:10.395Z,9.30
2023-03-16T09:34:37.162Z,7.57
2023-03-16T09:37:04.057Z,6.53
2023-03-16T09:39:31.886Z,5.50
2023-03-16T09:42:08.497Z,9.33
2023-03-16T09:44:43.407Z,3.50
2023-03-16T09:47:12.214Z,9.27
2023-03-16T09:49:46.273Z,8.17
2023-03-16T09:52:38.371Z,5.73
2023-03-16T09:55:33.212Z,6.40
2023-03-16T09:58:04.670Z,9.47
2023-03-16T10:00:39.551Z,6.80
2023-03-16T10:03:27.608Z,7.53
2023-03-16T10:06:08.151Z,5.90
2023-03-16T10:08:45.137Z,7.37
2023-03-16T10:11:31.574Z,6.73
2023-03-16T10:14:01.391Z,9.17
2023-03-16T10:16:39.870Z,5.90
2023-03-16T10:19:38.549Z,5.50
2023-03-16T10:22:29.761Z,5.77
2023-03-16T10:25:01.998Z,8.30
2023-03-16T10:27:32.157Z,3.70
2023-03-16T10:30:01.675Z,7.30
2023-03-16T10:32:34.463Z,7.20
2023-03-16T10:35:11.734Z,5.50
2023-03-16T10:37:38.768Z,8.27
2023-03-16T10:40:12.967Z,6.33
2023-03-16T10:42:39.720Z,7.90
2023-03-16T10:45:06.909Z,5.40
2023-03-16T10:47:34.095Z,6.70
2023-03-16T10:50:14.334Z,5.80
2023-03-16T10:52:45.240Z,7.33
2023-03-16T10:55:19.599Z,6.80
2023-03-16T10:57:55.146Z,10.33
2023-03-16T11:00:25.466Z,6.43
2023-03-16T11:02:57.003Z,7.47
2023-03-16T11:05:23.917Z,5.73
2023-03-16T11:08:10.699Z,7.33
2023-03-16T11:10:49.477Z,9.13
2023-03-16T11:13:21.201Z,4.53
2023-03-16T11:16:00.292Z,5.70
2023-03-16T11:18:47.675Z,9.50
2023-03-16T11:21:38.620Z,5.13
2023-03-16T11:24:10.988Z,7.00
2023-03-16T11:26:40.724Z,6.77
2023-03-16T11:29:30.394Z,5.87
2023-03-16T11:32:07.363Z,4.10
2023-03-16T11:34:35.279Z,4.93
2023-03-16T11:37:21.702Z,6.73
2023-03-16T11:40:14.227Z,5.07
2023-03-16T11:43:19.072Z,5.73
2023-03-16T11:46:26.428Z,4.20
2023-03-16T11:49:01.407Z,4.60
2023-03-16T11:51:49.793Z,9.03
2023-03-16T11:54:31.226Z,7.70
2023-03-16T11:57:20.658Z,5.57
2023-03-16T12:00:01.009Z,7.63
2023-03-16T12:02:53.518Z,7.70
2023-03-16T12:05:36.446Z,6.33
2023-03-16T12:08:15.074Z,5.47
2023-03-16T12:10:57.723Z,5.67
2023-03-16T12:13:33.743Z,6.00
2023-03-16T12:16:12.850Z,5.07
2023-03-16T12:18:55.206Z,7.00
2023-03-16T12:21:32.347Z,7.93
2023-03-16T12:24:07.022Z,6.60
2023-03-16T12:26:38.628Z,4.90
2023-03-16T12:29:42.943Z,6.17
2023-03-16T12:32:11.889Z,8.07
2023-03-16T12:35:03.556Z,5.40
2023-03-16T12:37:42.445Z,6.60
2023-03-16T12:40:20.960Z,5.10
2023-03-16T12:43:14.592Z,3.53
2023-03-16T12:46:12.656Z,3.40
2023-03-16T12:48:53.879Z,3.53
2023-03-16T12:51:20.662Z,5.33
2023-03-16T12:53:54.993Z,6.23
2023-03-16T12:56:37.449Z,4.40
2023-03-16T12:59:06.820Z,6.80
2023-03-16T13:01:43.745Z,5.03
2023-03-16T13:04:19.924Z,5.43
2023-03-16T13:06:51.584Z,2.83
2023-03-16T13:09:24.014Z,6.03
2023-03-16T13:11:50.860Z,5.37
2023-03-16T13:14:40.585Z,5.37
2023-03-16T13:17:17.043Z,3.77
2023-03-16T13:20:21.003Z,4.00
2023-03-16T13:23:27.568Z,4.53
2023-03-16T13:26:11.068Z,4.83
2023-03-16T13:28:39.350Z,4.90
2023-03-16T13:31:34.159Z,5.30
2023-03-16T13:34:01.052Z,6.07
2023-03-16T13:36:30.006Z,5.60
2023-03-16T13:39:20.950Z,6.17
2023-03-16T13:42:20.325Z,6.40
2023-03-16T13:44:48.044Z,4.43
2023-03-16T13:47:17.508Z,5.90
2023-03-16T13:49:53.868Z,4.37
2023-03-16T13:52:35.534Z,3.93
2023-03-16T13:55:07.372Z,5.53
2023-03-16T13:57:40.275Z,6.30
2023-03-16T14:00:21.522Z,4.13
2023-03-16T14:02:53.863Z,6.80
2023-03-16T14:05:30.482Z,5.43
2023-03-16T14:08:00.629Z,4.20
2023-03-16T14:10:33.194Z,5.13
2023-03-16T14:13:34.181Z,5.00
2023-03-16T14:16:02.865Z,4.73
2023-03-16T14:18:56.107Z,6.40
2023-03-16T14:21:25.834Z,5.57
2023-03-16T14:23:56.903Z,6.37
2023-03-16T14:26:24.467Z,5.17
2023-03-16T14:29:25.014Z,6.23
2023-03-16T14:31:51.866Z,5.03
2023-03-16T14:34:35.524Z,10.10
2023-03-16T14:37:19.332Z,6.50
2023-03-16T14:39:58.076Z,6.23
2023-03-16T14:42:29.534Z,9.43
2023-03-16T14:45:02.423Z,5.97
2023-03-16T14:47:32.059Z,7.07
2023-03-16T14:50:06.484Z,6.57
2023-03-16T14:52:33.984Z,6.50
2023-03-16T14:55:03.669Z,7.80
2023-03-16T14:57:30.678Z,6.63
2023-03-16T14:59:57.414Z,5.77
2023-03-16T15:02:28.951Z,5.43
2023-03-16T15:04:57.116Z,4.27
2023-03-16T15:07:27.318Z,6.00
2023-03-16T15:09:56.462Z,5.70
2023-03-16T15:12:25.078Z,7.87
2023-03-16T15:15:11.099Z,6.70
2023-03-16T15:17:37.883Z,5.27
2023-03-16T15:20:05.348Z,5.70
2023-03-16T15:22:37.375Z,6.37
2023-03-16T15:25:44.784Z,6.67
2023-03-16T15:28:18.912Z,7.47
2023-03-16T15:30:48.700Z,5.97
2023-03-16T15:33:17.085Z,7.83
2023-03-16T15:35:44.573Z,7.03
2023-03-16T15:38:23.030Z,5.30
2023-03-16T15:40:51.268Z,6.93
2023-03-16T15:43:20.714Z,7.47
2023-03-16T15:45:47.959Z,8.10
2023-03-16T15:48:16.911Z,6.80
2023-03-16T15:50:52.414Z,6.13
2023-03-16T15:53:30.646Z,7.13
2023-03-16T15:56:10.598Z,6.60
2023-03-16T15:58:40.177Z,7.07
2023-03-16T16:01:08.718Z,7.07
2023-03-16T16:03:35.961Z,8.43
2023-03-16T16:06:02.934Z,5.90
2023-03-16T16:08:29.980Z,6.67
2023-03-16T16:10:57.182Z,6.90
2023-03-16T16:13:37.585Z,5.47
2023-03-16T16:16:15.195Z,6.83
2023-03-16T16:18:42.381Z,3.70
2023-03-16T16:21:16.494Z,7.00
2023-03-16T16:23:43.517Z,6.23
2023-03-16T16:26:50.559Z,5.63
2023-03-16T16:29:22.848Z,5.83
2023-03-16T16:31:51.485Z,6.17
2023-03-16T16:34:21.489Z,7.07
2023-03-16T16:36:49.075Z,7.67
2023-03-16T16:39:16.048Z,6.40
2023-03-16T16:41:43.990Z,6.07
2023-03-16T16:44:20.379Z,5.67
2023-03-16T16:46:49.178Z,5.97
2023-03-16T16:49:28.281Z,6.50
2023-03-16T16:51:55.398Z,6.90
2023-03-16T16:54:28.396Z,9.47
2023-03-16T16:56:57.259Z,9.13
2023-03-16T16:59:26.212Z,6.90
2023-03-16T17:01:57.462Z,8.40
2023-03-16T17:04:27.037Z,5.43
2023-03-16T17:06:57.533Z,6.73
2023-03-16T17:09:26.651Z,7.70
2023-03-16T17:11:56.183Z,5.30
2023-03-16T17:14:24.031Z,7.20
2023-03-16T17:16:51.794Z,9.03
2023-03-16T17:19:24.411Z,7.47
2023-03-16T17:21:52.819Z,5.27
2023-03-16T17:24:19.603Z,6.40
2023-03-16T17:26:49.362Z,6.83
2023-03-16T17:29:22.980Z,7.13
2023-03-16T17:31:50.629Z,6.47
2023-03-16T17:34:21.346Z,8.80
2023-03-16T17:36:48.772Z,7.13
2023-03-16T17:39:23.546Z,6.77
2023-03-16T17:42:06.250Z,9.23
2023-03-16T17:44:36.131Z,7.20
2023-03-16T17:47:02.885Z,6.20
2023-03-16T17:49:32.429Z,8.50
2023-03-16T17:51:59.150Z,8.10
2023-03-16T17:54:26.419Z,7.57
2023-03-16T17:56:54.089Z,9.23
2023-03-16T17:59:22.981Z,8.77
2023-03-16T18:01:50.241Z,7.73
2023-03-16T18:04:19.076Z,6.53
2023-03-16T18:06:48.672Z,9.50
2023-03-16T18:09:16.671Z,9.07
2023-03-16T18:11:47.546Z,7.50
2023-03-16T18:14:37.122Z,6.00
2023-03-16T18:17:21.466Z,6.30
2023-03-16T18:19:49.701Z,7.67
2023-03-16T18:22:25.223Z,7.47
2023-03-16T18:24:53.898Z,6.90
2023-03-16T18:27:21.554Z,8.23
2023-03-16T18:29:49.060Z,5.87
2023-03-16T18:32:29.095Z,7.60
2023-03-16T18:34:57.780Z,8.07
2023-03-16T18:37:27.913Z,6.97
2023-03-16T18:39:55.215Z,5.00
2023-03-16T18:42:25.770Z,8.70
2023-03-16T18:44:52.560Z,10.03
2023-03-16T18:47:22.736Z,9.47
2023-03-16T18:49:53.428Z,6.53
2023-03-16T18:52:25.118Z,5.90
2023-03-16T18:54:53.073Z,8.73
2023-03-16T18:57:26.346Z,7.67
2023-03-16T18:59:53.787Z,6.03
2023-03-16T19:02:39.426Z,6.30
2023-03-16T19:05:18.635Z,8.60
2023-03-16T19:07:48.810Z,10.87
2023-03-16T19:10:30.695Z,8.13
2023-03-16T19:12:58.288Z,7.57
2023-03-16T19:15:31.849Z,8.37
2023-03-16T19:17:59.359Z,7.70
2023-03-16T19:20:29.291Z,7.67
2023-03-16T19:23:31.085Z,6.50
2023-03-16T19:25:58.472Z,8.30
2023-03-16T19:28:34.114Z,6.27
2023-03-16T19:31:03.933Z,7.97
2023-03-16T19:33:31.247Z,8.30
2023-03-16T19:35:58.424Z,5.77
2023-03-16T19:38:26.344Z,8.30
2023-03-16T19:40:59.280Z,7.93
2023-03-16T19:43:27.652Z,7.10
2023-03-16T19:45:56.440Z,7.27
2023-03-16T19:48:32.814Z,10.27
2023-03-16T19:51:00.313Z,6.97
2023-03-16T19:53:27.611Z,5.87
2023-03-16T19:55:54.659Z,5.60
2023-03-16T19:58:34.884Z,5.30
2023-03-16T20:01:02.284Z,6.40
2023-03-16T20:03:34.043Z,6.03
2023-03-16T20:06:01.002Z,9.23
2023-03-16T20:08:29.145Z,9.47
2023-03-16T20:11:01.779Z,7.10
2023-03-16T20:13:31.307Z,6.77
2023-03-16T20:15:58.490Z,7.67
2023-03-16T20:18:25.278Z,7.20
2023-03-16T20:20:52.352Z,8.67
2023-03-16T20:23:28.105Z,5.33
2023-03-16T20:26:01.432Z,7.17
2023-03-16T20:28:36.188Z,8.37
2023-03-16T20:31:07.898Z,5.93
2023-03-16T20:33:34.853Z,6.63
2023-03-16T20:36:01.848Z,5.23
2023-03-16T20:38:28.997Z,7.57
2023-03-16T20:40:59.059Z,7.57
2023-03-16T20:43:28.815Z,9.40
2023-03-16T20:46:01.714Z,6.70
2023-03-16T20:48:29.340Z,7.87
2023-03-16T20:50:58.106Z,5.83
2023-03-16T20:53:24.962Z,7.07
2023-03-16T20:55:52.564Z,7.17
2023-03-16T20:58:26.203Z,8.00
2023-03-16T21:00:57.946Z,7.80
2023-03-16T21:03:28.366Z,12.97
2023-03-16T21:05:59.620Z,7.63
2023-03-16T21:08:27.244Z,8.43
2023-03-16T21:10:56.284Z,7.20
2023-03-16T21:13:33.435Z,9.40
2023-03-16T21:16:03.284Z,8.90
2023-03-16T21:18:30.790Z,7.10
2023-03-16T21:20:58.828Z,8.63
2023-03-16T21:23:25.770Z,8.57
2023-03-16T21:26:00.610Z,6.97
2023-03-16T21:28:29.549Z,8.07
2023-03-16T21:30:58.127Z,8.07
2023-03-16T21:33:32.814Z,8.17
2023-03-16T21:36:01.405Z,6.93
2023-03-16T21:38:32.264Z,9.40
2023-03-16T21:40:59.897Z,7.60
2023-03-16T21:43:31.460Z,9.60
2023-03-16T21:46:00.544Z,8.40
2023-03-16T21:48:36.940Z,8.83
2023-03-16T21:51:14.296Z,6.83
2023-03-16T21:53:42.774Z,11.20
2023-03-16T21:56:15.770Z,10.67
2023-03-16T21:58:46.491Z,6.87
2023-03-16T22:01:33.362Z,7.37
2023-03-16T22:04:06.161Z,11.90
2023-03-16T22:06:33.230Z,8.50
2023-03-16T22:09:00.439Z,8.53
2023-03-16T22:11:29.661Z,12.33
2023-03-16T22:13:58.320Z,8.73
2023-03-16T22:16:28.039Z,9.50
2023-03-16T22:18:56.885Z,8.47
2023-03-16T22:21:32.257Z,15.73
2023-03-16T22:24:00.236Z,10.33
2023-03-16T22:26:28.762Z,9.80
2023-03-16T22:28:56.385Z,10.30
2023-03-16T22:31:42.064Z,7.17
2023-03-16T22:34:15.093Z,9.83
2023-03-16T22:36:42.356Z,11.43
2023-03-16T22:39:12.742Z,9.30
2023-03-16T22:41:39.448Z,9.83
2023-03-16T22:44:08.576Z,7.83
2023-03-16T22:46:35.466Z,8.93
2023-03-16T22:49:02.261Z,9.83
2023-03-16T22:51:33.519Z,8.43
2023-03-16T22:54:07.551Z,7.90
2023-03-16T22:56:35.193Z,10.70
2023-03-16T22:59:05.990Z,10.83
2023-03-16T23:01:39.539Z,10.03
2023-03-16T23:04:32.226Z,8.90
2023-03-16T23:06:59.413Z,13.83
2023-03-16T23:09:26.240Z,9.13
2023-03-16T23:11:54.717Z,9.00
2023-03-16T23:14:29.047Z,10.47
2023-03-16T23:16:56.678Z,14.50
2023-03-16T23:19:32.956Z,7.67
2023-03-16T23:22:03.277Z,13.20
2023-03-16T23:24:30.354Z,9.33
2023-03-16T23:26:57.762Z,7.33
2023-03-16T23:29:26.250Z,10.03
2023-03-16T23:31:53.682Z,11.00
2023-03-16T23:34:23.186Z,8.67
2023-03-16T23:36:50.815Z,9.40
2023-03-16T23:39:18.572Z,9.73
2023-03-16T23:41:48.419Z,8.20
2023-03-16T23:44:25.858Z,11.20
2023-03-16T23:46:53.300Z,13.70
2023-03-16T23:49:32.784Z,10.93
2023-03-16T23:52:01.800Z,11.23
2023-03-16T23:54:30.773Z,7.67
2023-03-16T23:56:57.906Z,10.40
2023-03-16T23:59:25.739Z,7.90
